Time;durP1;ratioP1;P1;durP2;ratioP2;P2;SDS_P1;SDS_P2;PMS_P1;PMS_P2;Temp;Humidity;BMP_temperature;BMP_pressure;BME280_temperature;BME280_humidity;BME280_pressure;Samples;Min_cycle;Max_cycle;Signal;HPM_P1;HPM_P2
2024/03/29 00:00:34;;;;;;;;;;;;;;;17.16;48.80;100304.91;5018148;28;1029;-56
2024/03/29 00:02:59;;;;;;;;;;;;;;;17.76;48.18;100317.69;5037011;28;1099;-57
2024/03/29 00:05:25;;;;;;;;;;;;;;;16.28;50.16;100311.84;5037049;28;1406;-57
2024/03/29 00:07:50;;;;;;;;;;;;;;;15.89;49.51;100307.69;5036488;28;1012;-56
2024/03/29 00:10:16;;;;;;;;;;;;;;;15.64;48.69;100309.56;5036589;28;1977;-55
2024/03/29 00:12:41;;;;;;;;;;;;;;;16.23;50.10;100312.19;5036090;28;1015;-56
2024/03/29 00:15:07;;;;;;;;;;;;;;;16.20;49.45;100308.94;5036657;28;1143;-56
2024/03/29 00:17:33;;;;;;;;;;;;;;;15.66;49.41;100312.09;5036721;28;1068;-57
2024/03/29 00:19:58;;;;;;;;;;;;;;;15.52;48.62;100324.59;5036766;28;1087;-56
2024/03/29 00:22:24;;;;;;;;;;;;;;;15.42;47.74;100318.28;5036369;28;1904;-56
2024/03/29 00:24:49;;;;;;;;;;;;;;;16.45;49.00;100326.41;5036539;28;1151;-57
2024/03/29 00:27:15;;;;;;;;;;;;;;;15.95;49.37;100330.22;5036576;28;993;-56
2024/03/29 00:29:41;;;;;;;;;;;;;;;15.58;48.78;100333.06;5036002;28;1976;-57
2024/03/29 00:32:06;;;;;;;;;;;;;;;15.39;48.38;100343.25;5036591;28;1091;-57
2024/03/29 00:34:32;;;;;;;;;;;;;;;15.21;47.72;100345.44;5035874;28;1095;-56
2024/03/29 00:36:57;;;;;;;;;;;;;;;16.56;48.70;100356.59;5036248;28;1423;-56
2024/03/29 00:39:23;;;;;;;;;;;;;;;15.84;49.45;100364.69;5035896;28;1064;-57
2024/03/29 00:41:48;;;;;;;;;;;;;;;17.68;47.96;100358.25;5036432;28;1083;-56
2024/03/29 00:44:14;;;;;;;;;;;;;;;17.26;48.81;100337.75;5036500;28;1087;-56
2024/03/29 00:46:39;;;;;;;;;;;;;;;16.27;49.63;100345.50;5036187;28;916;-57
2024/03/29 00:49:05;;;;;;;;;;;;;;;15.97;49.06;100341.56;5035545;28;1051;-56
2024/03/29 00:51:30;;;;;;;;;;;;;;;15.67;48.75;100343.81;5035773;28;1965;-57
2024/03/29 00:53:56;;;;;;;;;;;;;;;16.32;49.75;100331.84;5026354;28;1775;-56
2024/03/29 00:56:21;;;;;;;;;;;;;;;16.37;49.82;100331.50;5036243;28;1032;-56
2024/03/29 00:58:47;;;;;;;;;;;;;;;15.75;49.31;100332.59;5035624;28;1056;-56
2024/03/29 01:01:12;;;;;;;;;;;;;;;15.62;48.18;100327.41;5035874;28;1104;-58
2024/03/29 01:03:38;;;;;;;;;;;;;;;16.45;49.49;100338.88;5035389;28;999;-59
2024/03/29 01:06:04;;;;;;;;;;;;;;;15.72;49.23;100327.53;5018115;28;1044;-57
2024/03/29 01:08:29;;;;;;;;;;;;;;;15.58;48.51;100325.09;5035870;28;1043;-56
2024/03/29 01:10:55;;;;;;;;;;;;;;;15.51;48.25;100314.97;5035168;28;1968;-58
2024/03/29 01:13:20;;;;;;;;;;;;;;;16.87;48.20;100322.25;5035444;28;1112;-56
2024/03/29 01:15:46;;;;;;;;;;;;;;;15.83;48.97;100318.75;5035134;28;1533;-55
2024/03/29 01:18:11;;;;;;;;;;;;;;;15.51;48.08;100319.41;5035842;28;1080;-57
2024/03/29 01:20:37;;;;;;;;;;;;;;;15.67;48.98;100327.03;5036168;28;1152;-55
2024/03/29 01:23:02;;;;;;;;;;;;;;;16.52;48.56;100327.63;5034843;28;2377;-53
2024/03/29 01:25:29;;;;;;;;;;;;;;;15.72;49.31;100324.88;5035493;28;1068;-60
2024/03/29 01:27:54;;;;;;;;;;;;;;;15.55;48.38;100320.84;5035710;28;1143;-59
2024/03/29 01:30:21;;;;;;;;;;;;;;;15.40;48.28;100328.16;5035943;28;1898;-59
2024/03/29 01:32:47;;;;;;;;;;;;;;;16.59;48.28;100330.66;5035606;28;1199;-59
2024/03/29 01:35:12;;;;;;;;;;;;;;;15.63;49.10;100328.25;5034835;28;1127;-58
2024/03/29 01:37:39;;;;;;;;;;;;;;;15.40;48.74;100326.38;5035612;28;1052;-58
2024/03/29 01:40:04;;;;;;;;;;;;;;;16.39;48.51;100337.53;5035712;28;1067;-58
2024/03/29 01:42:30;;;;;;;;;;;;;;;15.58;49.21;100339.19;5035566;28;1155;-59
2024/03/29 01:44:55;;;;;;;;;;;;;;;16.78;48.83;100347.75;5035358;28;1036;-58
2024/03/29 01:47:21;;;;;;;;;;;;;;;16.18;49.13;100362.16;5035301;28;891;-57
2024/03/29 01:49:46;;;;;;;;;;;;;;;15.65;49.28;100369.59;5035418;28;1975;-58
2024/03/29 01:52:15;;;;;;;;;;;;;;;15.41;48.38;100370.44;5017981;28;1020;-59
2024/03/29 01:54:40;;;;;;;;;;;;;;;15.25;47.54;100370.75;5026039;28;2499;-59
2024/03/29 01:57:06;;;;;;;;;;;;;;;16.74;48.24;100362.25;5035185;28;1466;-57
2024/03/29 01:59:31;;;;;;;;;;;;;;;15.66;48.93;100358.00;5017587;28;962;-58
2024/03/29 02:01:57;;;;;;;;;;;;;;;15.38;48.71;100357.44;5017724;28;1071;-57
2024/03/29 02:04:22;;;;;;;;;;;;;;;15.35;47.63;100368.25;5034182;28;1753;-58
2024/03/29 02:06:48;;;;;;;;;;;;;;;16.32;48.37;100376.97;5035133;28;1059;-58
2024/03/29 02:09:13;;;;;;;;;;;;;;;15.53;48.87;100374.00;5017758;28;1087;-57
2024/03/29 02:11:39;;;;;;;;;;;;;;;15.35;48.23;100370.09;5034877;28;1905;-57
2024/03/29 02:14:06;;;;;;;;;;;;;;;16.54;48.37;100375.31;5035316;28;1451;-58
2024/03/29 02:16:31;;;;;;;;;;;;;;;15.66;49.09;100373.09;5035435;28;1132;-57
2024/03/29 02:18:57;;;;;;;;;;;;;;;15.37;48.49;100365.50;5035037;28;1028;-58
2024/03/29 02:21:23;;;;;;;;;;;;;;;16.78;48.00;100371.69;5035114;28;997;-58
2024/03/29 02:23:50;;;;;;;;;;;;;;;15.72;48.92;100371.78;5033177;28;2398;-58
2024/03/29 02:26:16;;;;;;;;;;;;;;;15.36;48.52;100377.06;5038341;28;1051;-58
2024/03/29 02:28:41;;;;;;;;;;;;;;;15.34;47.83;100377.19;5038965;28;980;-58
2024/03/29 02:31:08;;;;;;;;;;;;;;;16.50;48.26;100390.63;5038800;28;1981;-56
2024/03/29 02:33:33;;;;;;;;;;;;;;;15.66;48.72;100379.22;5038472;28;1072;-57
2024/03/29 02:35:59;;;;;;;;;;;;;;;15.38;47.89;100393.72;5038277;28;1094;-59
2024/03/29 02:38:24;;;;;;;;;;;;;;;16.80;48.35;100398.94;5038318;28;1202;-58
2024/03/29 02:40:50;;;;;;;;;;;;;;;15.84;48.94;100399.19;5038588;28;986;-58
2024/03/29 02:43:16;;;;;;;;;;;;;;;15.54;48.66;100396.91;5038912;28;1234;-59
2024/03/29 02:45:42;;;;;;;;;;;;;;;16.55;48.42;100406.19;5038328;28;1202;-59
2024/03/29 02:48:08;;;;;;;;;;;;;;;15.61;49.17;100407.91;5038472;28;1044;-59
2024/03/29 02:50:33;;;;;;;;;;;;;;;16.84;48.63;100412.81;5038003;28;1983;-59
2024/03/29 02:52:59;;;;;;;;;;;;;;;16.19;49.06;100422.22;5038310;28;1802;-57
2024/03/29 02:55:24;;;;;;;;;;;;;;;15.64;49.03;100415.63;5038509;28;1060;-57
2024/03/29 02:57:50;;;;;;;;;;;;;;;15.45;48.39;100413.50;5038155;28;1124;-57
2024/03/29 03:00:16;;;;;;;;;;;;;;;16.85;48.63;100417.19;5038678;28;1039;-59
2024/03/29 03:02:41;;;;;;;;;;;;;;;16.07;49.22;100409.88;5038379;28;1112;-58
2024/03/29 03:05:07;;;;;;;;;;;;;;;15.62;49.10;100408.75;5038629;28;1047;-59
2024/03/29 03:13:00;;;;;;;;;;;;;;;15.95;49.19;100423.09;5037653;28;992;-59
2024/03/29 03:15:26;;;;;;;;;;;;;;;16.51;49.30;100434.81;5038174;28;1075;-58
2024/03/29 03:17:51;;;;;;;;;;;;;;;17.32;47.86;100432.09;5037654;28;1052;-58
2024/03/29 03:20:17;;;;;;;;;;;;;;;16.06;49.64;100434.72;5020471;28;1071;-59
2024/03/29 03:22:42;;;;;;;;;;;;;;;15.64;49.22;100433.34;5019767;28;1922;-58
2024/03/29 03:25:08;;;;;;;;;;;;;;;15.56;48.16;100431.28;5038065;28;1155;-56
2024/03/29 03:27:33;;;;;;;;;;;;;;;15.36;47.96;100430.06;5037931;28;1063;-57
2024/03/29 03:29:59;;;;;;;;;;;;;;;16.07;49.08;100436.41;5037386;28;1971;-58
2024/03/29 03:32:24;;;;;;;;;;;;;;;15.59;49.02;100443.44;5037944;28;921;-57
2024/03/29 03:34:50;;;;;;;;;;;;;;;16.03;49.07;100438.47;5037433;28;1116;-56
2024/03/29 03:37:15;;;;;;;;;;;;;;;16.81;48.28;100436.97;5036771;28;1171;-56
2024/03/29 03:39:41;;;;;;;;;;;;;;;15.87;49.18;100428.13;5038118;28;1023;-58
2024/03/29 03:42:06;;;;;;;;;;;;;;;17.55;48.38;100432.88;5037783;28;1119;-59
2024/03/29 03:44:32;;;;;;;;;;;;;;;16.56;49.52;100446.88;5037523;28;1047;-57
2024/03/29 03:46:57;;;;;;;;;;;;;;;15.98;49.34;100444.09;5036827;28;1020;-57
2024/03/29 03:49:23;;;;;;;;;;;;;;;15.69;48.97;100447.09;5024943;28;1005;-56
2024/03/29 03:51:48;;;;;;;;;;;;;;;15.57;47.77;100445.34;5037344;28;1983;-55
2024/03/29 03:54:14;;;;;;;;;;;;;;;16.77;49.26;100450.50;5037560;28;2624;-56
2024/03/29 03:56:39;;;;;;;;;;;;;;;15.81;49.27;100452.47;5037062;28;1159;-56
2024/03/29 03:59:05;;;;;;;;;;;;;;;15.61;48.61;100458.28;5037451;28;860;-56
2024/03/29 04:01:30;;;;;;;;;;;;;;;15.49;47.61;100461.81;5037189;28;1005;-57
2024/03/29 04:03:56;;;;;;;;;;;;;;;16.27;48.44;100467.59;5019407;28;1107;-59
2024/03/29 04:06:21;;;;;;;;;;;;;;;15.95;48.95;100477.97;5037652;28;989;-55
2024/03/29 04:08:47;;;;;;;;;;;;;;;15.54;48.79;100476.47;5036854;28;1206;-57
2024/03/29 04:11:12;;;;;;;;;;;;;;;15.37;47.82;100474.16;5036854;28;1980;-57
2024/03/29 04:13:40;;;;;;;;;;;;;;;16.64;48.52;100479.00;5037035;28;1063;-62
2024/03/29 04:16:05;;;;;;;;;;;;;;;15.67;49.08;100476.41;5036792;28;997;-60
2024/03/29 04:18:31;;;;;;;;;;;;;;;15.46;48.26;100476.16;5036935;28;1138;-59
2024/03/29 04:20:57;;;;;;;;;;;;;;;15.23;47.62;100491.06;5036531;28;1156;-58
2024/03/29 04:23:23;;;;;;;;;;;;;;;15.91;48.47;100491.44;5036729;28;2526;-58
2024/03/29 04:25:57;;;;;;;;;;;;;;;15.94;48.53;100501.00;5036951;28;1024;-60
2024/03/29 04:28:23;;;;;;;;;;;;;;;16.63;48.68;100501.22;5036630;28;1203;-61
2024/03/29 04:30:58;;;;;;;;;;;;;;;17.70;47.46;100499.94;5036561;28;1913;-58
2024/03/29 04:33:24;;;;;;;;;;;;;;;16.05;49.49;100497.56;5037182;28;1044;-59
2024/03/29 04:35:56;;;;;;;;;;;;;;;15.84;48.66;100499.97;5036009;28;1137;-57
2024/03/29 04:38:22;;;;;;;;;;;;;;;16.95;49.42;100510.31;5036131;28;1118;-57
2024/03/29 04:40:48;;;;;;;;;;;;;;;16.11;49.62;100506.88;5036383;28;917;-53
2024/03/29 04:43:13;;;;;;;;;;;;;;;15.67;48.82;100513.53;5036577;28;1190;-56
2024/03/29 04:45:39;;;;;;;;;;;;;;;17.25;48.86;100517.66;5036016;28;1190;-54
2024/03/29 04:48:05;;;;;;;;;;;;;;;16.09;49.37;100522.06;5036064;28;903;-53
2024/03/29 04:50:30;;;;;;;;;;;;;;;15.74;48.85;100523.66;5036119;28;1909;-57
2024/03/29 04:52:56;;;;;;;;;;;;;;;17.09;49.10;100528.69;5031037;28;2387;-51
2024/03/29 04:55:21;;;;;;;;;;;;;;;16.24;49.24;100523.56;5032477;28;1040;-56
2024/03/29 04:57:47;;;;;;;;;;;;;;;15.77;49.14;100529.59;5036055;28;1044;-46
2024/03/29 05:00:12;;;;;;;;;;;;;;;15.62;48.33;100544.81;5036236;28;1170;-52
2024/03/29 05:02:38;;;;;;;;;;;;;;;15.50;47.41;100551.84;5033393;28;1536;-51
2024/03/29 05:05:04;;;;;;;;;;;;;;;15.30;46.75;100547.97;5036666;28;1100;-51
2024/03/29 05:07:30;;;;;;;;;;;;;;;15.27;46.87;100548.19;5036205;28;1051;-49
2024/03/29 05:09:55;;;;;;;;;;;;;;;16.96;44.26;100557.16;5035888;28;1906;-48
2024/03/29 05:12:21;;;;;;;;;;;;;;;16.56;45.16;100561.06;5035823;28;1013;-55
2024/03/29 05:14:49;;;;;;;;;;;;;;;16.33;45.77;100564.47;5035823;28;1086;-51
2024/03/29 05:17:15;;;;;;;;;;;;;;;16.13;46.18;100563.34;5036268;28;1119;-55
2024/03/29 05:19:40;;;;;;;;;;;;;;;16.03;46.58;100569.31;5035771;28;1080;-56
2024/03/29 05:22:06;;;;;;;;;;;;;;;15.93;46.95;100570.06;5036018;28;1170;-55
2024/03/29 05:24:31;;;;;;;;;;;;;;;15.75;47.69;100573.94;5035665;28;2525;-54
2024/03/29 05:26:57;;;;;;;;;;;;;;;15.72;47.90;100579.47;5035767;28;1079;-54
2024/03/29 05:29:22;;;;;;;;;;;;;;;16.56;46.44;100587.63;5035885;28;1226;-52
2024/03/29 05:31:48;;;;;;;;;;;;;;;17.40;44.35;100585.72;5035778;28;1906;-52
2024/03/29 05:34:14;;;;;;;;;;;;;;;16.57;46.29;100603.44;5035748;28;1159;-53
2024/03/29 05:36:40;;;;;;;;;;;;;;;16.28;46.88;100595.88;5035545;28;1178;-54
2024/03/29 05:39:05;;;;;;;;;;;;;;;16.05;47.41;100603.69;5035685;28;1079;-56
2024/03/29 05:41:31;;;;;;;;;;;;;;;15.91;48.24;100612.63;5035358;28;1134;-55
2024/03/29 05:43:57;;;;;;;;;;;;;;;16.40;47.39;100618.81;5036165;28;1063;-52
2024/03/29 05:46:23;;;;;;;;;;;;;;;17.57;44.51;100618.94;5035606;28;1035;-55
2024/03/29 05:48:48;;;;;;;;;;;;;;;16.78;46.28;100624.03;5035750;28;892;-51
2024/03/29 05:51:14;;;;;;;;;;;;;;;16.37;47.23;100626.16;5035712;28;1918;-55
2024/03/29 05:53:39;;;;;;;;;;;;;;;16.16;47.89;100630.28;5035117;28;2617;-49
2024/03/29 05:56:05;;;;;;;;;;;;;;;15.97;48.40;100633.41;5035579;28;1080;-47
2024/03/29 05:58:32;;;;;;;;;;;;;;;16.22;48.16;100628.13;5035446;28;1064;-49
2024/03/29 06:00:58;;;;;;;;;;;;;;;17.55;45.04;100637.66;5039183;28;889;-54
2024/03/29 06:03:23;;;;;;;;;;;;;;;16.93;46.16;100630.00;5038926;28;1223;-53
2024/03/29 06:05:49;;;;;;;;;;;;;;;16.51;47.53;100636.63;5039564;28;1088;-53
2024/03/29 06:08:15;;;;;;;;;;;;;;;16.31;48.31;100640.75;5039743;28;1070;-51
2024/03/29 06:10:40;;;;;;;;;;;;;;;16.06;48.84;100644.34;5039675;28;1980;-52
2024/03/29 06:13:17;;;;;;;;;;;;;;;17.27;46.11;100647.81;5039597;28;882;-51
2024/03/29 06:18:27;;;;;;;;;;;;;;;16.59;47.31;100653.78;5039644;28;1059;-51
2024/03/29 06:20:52;;;;;;;;;;;;;;;16.35;48.00;100655.47;5039530;28;1071;-49
2024/03/29 06:23:18;;;;;;;;;;;;;;;16.14;48.67;100647.28;5039477;28;1016;-50
2024/03/29 06:25:44;;;;;;;;;;;;;;;16.02;48.82;100641.06;5039486;28;1176;-48
2024/03/29 06:28:09;;;;;;;;;;;;;;;16.31;48.53;100664.66;5039651;28;1075;-51
2024/03/29 06:30:35;;;;;;;;;;;;;;;17.62;45.50;100648.66;5039443;28;1906;-52
2024/03/29 06:33:02;;;;;;;;;;;;;;;16.97;46.89;100665.97;5039463;28;1060;-52
2024/03/29 06:35:28;;;;;;;;;;;;;;;16.55;48.08;100663.78;5025557;28;1102;-52
2024/03/29 06:37:54;;;;;;;;;;;;;;;16.33;48.56;100675.16;5038943;28;1060;-51
2024/03/29 06:40:19;;;;;;;;;;;;;;;16.17;48.95;100676.25;5039019;28;1198;-56
2024/03/29 06:42:45;;;;;;;;;;;;;;;17.43;46.21;100683.84;5039181;28;1469;-56
2024/03/29 06:45:10;;;;;;;;;;;;;;;17.30;46.18;100690.09;5025686;28;1034;-47
2024/03/29 06:47:36;;;;;;;;;;;;;;;16.69;47.66;100693.78;5038831;28;1036;-46
2024/03/29 06:50:02;;;;;;;;;;;;;;;16.45;48.44;100690.16;5025728;28;1942;-51
2024/03/29 06:52:28;;;;;;;;;;;;;;;16.27;48.88;100695.00;5039008;28;1031;-51
2024/03/29 06:54:54;;;;;;;;;;;;;;;16.35;48.72;100692.66;5038993;28;1139;-47
2024/03/29 06:57:23;;;;;;;;;;;;;;;17.66;45.82;100690.03;5038911;28;1123;-51
2024/03/29 06:59:48;;;;;;;;;;;;;;;16.93;47.09;100691.09;5038455;28;1142;-49
2024/03/29 07:02:14;;;;;;;;;;;;;;;16.50;48.20;100697.78;5021312;28;1162;-51
2024/03/29 07:04:39;;;;;;;;;;;;;;;16.32;48.99;100694.69;5038928;28;1076;-50
2024/03/29 07:07:05;;;;;;;;;;;;;;;16.17;49.07;100692.19;5038719;28;1021;-52
2024/03/29 07:09:30;;;;;;;;;;;;;;;16.06;49.49;100698.28;5039057;28;1171;-48
2024/03/29 07:11:57;;;;;;;;;;;;;;;16.05;49.45;100703.69;5037881;28;1907;-52
2024/03/29 07:14:23;;;;;;;;;;;;;;;17.52;46.37;100695.59;5038489;28;1202;-52
2024/03/29 07:16:48;;;;;;;;;;;;;;;17.12;46.91;100698.53;5038172;28;1190;-51
2024/03/29 07:19:15;;;;;;;;;;;;;;;16.60;48.20;100700.63;5038821;28;1082;-54
2024/03/29 07:21:43;;;;;;;;;;;;;;;16.34;48.92;100698.94;5038529;28;1163;-52
2024/03/29 07:24:08;;;;;;;;;;;;;;;16.21;49.01;100706.94;5020105;28;1087;-51
2024/03/29 07:26:34;;;;;;;;;;;;;;;16.13;49.58;100702.16;5038003;28;1157;-51
2024/03/29 07:29:00;;;;;;;;;;;;;;;17.24;47.07;100699.44;5020818;28;1155;-50
2024/03/29 07:31:25;;;;;;;;;;;;;;;17.18;46.81;100699.03;5038231;28;1971;-51
2024/03/29 07:33:51;;;;;;;;;;;;;;;16.59;48.41;100705.09;5031338;28;1564;-51
2024/03/29 07:36:17;;;;;;;;;;;;;;;16.37;49.07;100708.47;5029094;28;1059;-52
2024/03/29 07:38:43;;;;;;;;;;;;;;;16.19;49.45;100711.50;5038318;28;1152;-50
2024/03/29 07:41:09;;;;;;;;;;;;;;;16.02;49.97;100710.91;5038346;28;1056;-53
2024/03/29 07:43:41;;;;;;;;;;;;;;;17.03;47.59;100717.84;5037879;28;1031;-49
2024/03/29 07:46:10;;;;;;;;;;;;;;;17.33;46.65;100720.94;5020642;28;1111;-56
2024/03/29 07:48:38;;;;;;;;;;;;;;;16.69;48.34;100715.88;5037350;28;1024;-57
2024/03/29 07:51:04;;;;;;;;;;;;;;;16.43;48.64;100716.00;5037589;28;1915;-51
2024/03/29 07:53:29;;;;;;;;;;;;;;;16.25;49.44;100719.00;5037899;28;1211;-53
2024/03/29 07:55:55;;;;;;;;;;;;;;;16.09;49.73;100726.38;5037355;28;1154;-54
2024/03/29 07:58:20;;;;;;;;;;;;;;;16.05;50.21;100724.91;5037275;28;1048;-50
2024/03/29 08:00:46;;;;;;;;;;;;;;;17.48;46.78;100709.13;5037245;28;1155;-52
2024/03/29 08:03:11;;;;;;;;;;;;;;;17.30;46.83;100718.53;5037244;28;1044;-52
2024/03/29 08:05:37;;;;;;;;;;;;;;;16.74;48.18;100715.53;5037522;28;1211;-52
2024/03/29 08:08:03;;;;;;;;;;;;;;;16.49;48.86;100718.19;5037136;28;1059;-54
2024/03/29 08:10:29;;;;;;;;;;;;;;;16.26;49.74;100712.78;5037618;28;1986;-57
2024/03/29 08:12:55;;;;;;;;;;;;;;;16.22;49.53;100715.72;5036954;28;1278;-57
2024/03/29 08:15:20;;;;;;;;;;;;;;;16.75;48.62;100707.44;5037737;28;1079;-57
2024/03/29 08:17:46;;;;;;;;;;;;;;;17.70;46.17;100711.94;5037090;28;1111;-55
2024/03/29 08:20:11;;;;;;;;;;;;;;;16.91;48.05;100713.44;5037016;28;1031;-53
2024/03/29 08:22:37;;;;;;;;;;;;;;;16.59;48.53;100710.41;5036841;28;1055;-53
2024/03/29 08:25:02;;;;;;;;;;;;;;;16.32;49.13;100716.75;5036617;28;1088;-57
2024/03/29 08:27:28;;;;;;;;;;;;;;;16.24;49.33;100716.47;5037301;28;1079;-53
2024/03/29 08:29:53;;;;;;;;;;;;;;;16.12;49.77;100712.91;5036510;28;1906;-54
2024/03/29 08:32:19;;;;;;;;;;;;;;;16.83;48.45;100706.88;5037186;28;1142;-55
2024/03/29 08:34:44;;;;;;;;;;;;;;;17.66;46.21;100708.66;5036826;28;1114;-53
2024/03/29 08:37:10;;;;;;;;;;;;;;;16.86;47.98;100713.78;5036516;28;1087;-54
2024/03/29 08:39:37;;;;;;;;;;;;;;;16.52;48.91;100709.16;5036324;28;1040;-49
2024/03/29 08:42:05;;;;;;;;;;;;;;;16.33;49.22;100696.38;5037009;28;1055;-51
2024/03/29 08:44:33;;;;;;;;;;;;;;;16.21;49.86;100700.78;5037011;28;1025;-53
2024/03/29 08:47:01;;;;;;;;;;;;;;;16.08;49.87;100696.34;5036782;28;1039;-54
2024/03/29 08:49:29;;;;;;;;;;;;;;;16.93;48.27;100699.09;5036080;28;1270;-55
2024/03/29 08:51:56;;;;;;;;;;;;;;;17.55;46.38;100688.19;5036455;28;1902;-55
2024/03/29 08:54:21;;;;;;;;;;;;;;;16.87;48.06;100699.50;5036144;28;1158;-55
2024/03/29 08:56:47;;;;;;;;;;;;;;;16.50;49.13;100698.63;5036728;28;1123;-55
2024/03/29 08:59:14;;;;;;;;;;;;;;;16.34;49.31;100698.94;5036497;28;1039;-54
2024/03/29 09:01:44;;;;;;;;;;;;;;;16.23;49.45;100704.16;5036495;28;1079;-60
2024/03/29 09:04:12;;;;;;;;;;;;;;;16.07;50.13;100688.47;5023585;28;1043;-54
2024/03/29 09:06:38;;;;;;;;;;;;;;;16.73;48.94;100692.59;5036376;28;1055;-54
2024/03/29 09:09:04;;;;;;;;;;;;;;;17.70;46.35;100693.31;5023243;28;1055;-54
2024/03/29 09:11:30;;;;;;;;;;;;;;;16.91;47.83;100695.69;5018585;28;1963;-54
2024/03/29 09:13:58;;;;;;;;;;;;;;;16.56;49.12;100701.81;5035967;28;1261;-57
2024/03/29 09:16:23;;;;;;;;;;;;;;;16.33;49.48;100704.34;5036304;28;1199;-53
2024/03/29 09:18:49;;;;;;;;;;;;;;;16.20;49.77;100704.41;5036384;28;1079;-55
2024/03/29 09:21:14;;;;;;;;;;;;;;;16.57;49.08;100693.72;5035945;28;1067;-54
2024/03/29 09:23:41;;;;;;;;;;;;;;;17.70;46.44;100691.47;5036369;28;1138;-58
2024/03/29 09:26:07;;;;;;;;;;;;;;;16.94;47.91;100684.81;5036564;28;1024;-52
2024/03/29 09:28:34;;;;;;;;;;;;;;;16.55;49.12;100692.16;5036244;28;1115;-54
2024/03/29 09:31:00;;;;;;;;;;;;;;;16.39;49.48;100694.13;5036112;28;1980;-53
2024/03/29 09:33:25;;;;;;;;;;;;;;;16.20;49.72;100697.25;5036028;28;1044;-52
2024/03/29 09:35:51;;;;;;;;;;;;;;;16.12;49.96;100700.47;5040032;28;1126;-53
2024/03/29 09:38:17;;;;;;;;;;;;;;;16.51;49.55;100694.19;5039870;28;1044;-53
2024/03/29 09:40:43;;;;;;;;;;;;;;;17.70;46.37;100688.81;5040088;28;1024;-52
2024/03/29 09:43:08;;;;;;;;;;;;;;;16.98;47.92;100693.41;5040356;28;1184;-52
2024/03/29 09:45:37;;;;;;;;;;;;;;;16.55;49.25;100692.16;5022392;28;1162;-55
2024/03/29 09:48:03;;;;;;;;;;;;;;;16.36;49.38;100685.53;5040080;28;1091;-54
2024/03/29 09:50:28;;;;;;;;;;;;;;;16.23;49.76;100699.69;5022104;28;1972;-54
2024/03/29 09:52:54;;;;;;;;;;;;;;;16.26;50.17;100691.53;5040114;28;1116;-49
2024/03/29 09:55:20;;;;;;;;;;;;;;;17.68;46.56;100688.09;5040080;28;1139;-52
2024/03/29 09:57:46;;;;;;;;;;;;;;;17.00;47.91;100676.38;5022526;28;1152;-53
2024/03/29 10:00:11;;;;;;;;;;;;;;;16.61;49.23;100687.25;5039924;28;1088;-50
2024/03/29 10:02:37;;;;;;;;;;;;;;;16.34;49.49;100685.66;5039013;28;1123;-54
2024/03/29 10:05:03;;;;;;;;;;;;;;;16.21;50.08;100680.41;5055383;28;1105;-49
2024/03/29 10:07:29;;;;;;;;;;;;;;;16.13;50.28;100683.59;5039853;28;1218;-52
2024/03/29 10:09:56;;;;;;;;;;;;;;;17.48;47.36;100690.50;5039461;28;1973;-56
2024/03/29 10:12:22;;;;;;;;;;;;;;;17.21;47.45;100710.28;5039128;28;1047;-56
2024/03/29 10:14:52;;;;;;;;;;;;;;;16.77;48.65;100702.03;5039194;28;849;-55
2024/03/29 10:17:18;;;;;;;;;;;;;;;16.56;49.33;100691.19;5039792;28;1033;-56
2024/03/29 10:19:44;;;;;;;;;;;;;;;16.37;49.78;100684.56;5040021;28;1164;-52
2024/03/29 10:22:09;;;;;;;;;;;;;;;16.21;49.99;100677.75;5038975;28;890;-49
2024/03/29 10:24:35;;;;;;;;;;;;;;;16.11;50.30;100674.06;5039312;28;1043;-51
2024/03/29 10:27:01;;;;;;;;;;;;;;;17.50;47.38;100667.28;5021198;28;1371;-53
2024/03/29 10:29:29;;;;;;;;;;;;;;;17.17;47.82;100668.09;5039725;28;1056;-55
2024/03/29 10:31:57;;;;;;;;;;;;;;;16.67;49.22;100659.38;5038718;28;1910;-55
2024/03/29 10:34:26;;;;;;;;;;;;;;;16.53;49.46;100652.44;5039226;28;1067;-54
2024/03/29 10:36:51;;;;;;;;;;;;;;;16.30;49.92;100657.63;5038674;28;1043;-54
2024/03/29 10:39:17;;;;;;;;;;;;;;;16.24;50.04;100658.09;5039148;28;908;-53
2024/03/29 10:41:43;;;;;;;;;;;;;;;16.33;50.15;100659.22;5038855;28;1393;-51
2024/03/29 10:44:11;;;;;;;;;;;;;;;17.75;46.85;100652.06;5038891;28;996;-49
2024/03/29 10:46:38;;;;;;;;;;;;;;;17.11;48.01;100658.78;5038795;28;1187;-47
2024/03/29 10:49:03;;;;;;;;;;;;;;;16.69;49.24;100646.81;5038858;28;1071;-51
2024/03/29 10:51:29;;;;;;;;;;;;;;;16.47;50.02;100655.53;5038402;28;1909;-53
2024/03/29 10:53:55;;;;;;;;;;;;;;;16.35;49.99;100658.13;5038908;28;1087;-53
2024/03/29 10:56:20;;;;;;;;;;;;;;;16.30;50.11;100662.94;5021543;28;1152;-53
2024/03/29 10:58:47;;;;;;;;;;;;;;;16.16;50.54;100651.50;5038578;28;1040;-53
2024/03/29 11:01:14;;;;;;;;;;;;;;;16.37;50.38;100663.31;5054413;28;1159;-52
2024/03/29 11:03:49;;;;;;;;;;;;;;;17.79;47.01;100668.63;5038347;28;877;-51
2024/03/29 11:06:14;;;;;;;;;;;;;;;17.12;48.10;100677.28;5038868;28;1063;-51
2024/03/29 11:08:45;;;;;;;;;;;;;;;16.68;49.38;100681.47;5038208;28;1043;-52
2024/03/29 11:11:10;;;;;;;;;;;;;;;16.43;50.06;100683.28;5026109;28;1974;-49
2024/03/29 11:13:52;;;;;;;;;;;;;;;16.35;50.21;100689.16;5053375;28;1082;-50
2024/03/29 11:16:18;;;;;;;;;;;;;;;16.19;50.60;100700.88;5038958;28;1175;-45
2024/03/29 11:18:44;;;;;;;;;;;;;;;16.25;50.42;100695.13;5038057;28;1075;-48
2024/03/29 11:21:10;;;;;;;;;;;;;;;17.61;47.41;100692.22;5038310;28;1131;-50
2024/03/29 11:23:36;;;;;;;;;;;;;;;17.27;47.84;100678.91;5020787;28;1164;-50
2024/03/29 11:26:02;;;;;;;;;;;;;;;16.77;49.07;100688.72;5038318;28;1122;-51
2024/03/29 11:28:31;;;;;;;;;;;;;;;16.55;49.75;100668.25;5037944;28;1203;-46
2024/03/29 11:31:05;;;;;;;;;;;;;;;16.38;50.20;100654.44;5038063;28;1914;-48
2024/03/29 11:33:31;;;;;;;;;;;;;;;16.27;50.61;100671.13;5038458;28;1183;-50
2024/03/29 11:35:57;;;;;;;;;;;;;;;16.18;50.45;100677.97;5037597;28;1087;-49
2024/03/29 11:38:29;;;;;;;;;;;;;;;16.05;50.94;100679.81;5037907;28;1399;-48
2024/03/29 11:40:55;;;;;;;;;;;;;;;17.19;48.62;100664.38;5038352;28;1092;-46
2024/03/29 11:43:20;;;;;;;;;;;;;;;17.52;47.24;100677.81;5037926;28;1036;-47
2024/03/29 11:45:46;;;;;;;;;;;;;;;16.87;49.10;100676.47;5037646;28;1068;-47
2024/03/29 11:48:11;;;;;;;;;;;;;;;16.58;49.52;100670.69;5020225;28;1060;-46
2024/03/29 11:50:37;;;;;;;;;;;;;;;16.29;50.34;100663.91;5037669;28;1979;-47
2024/03/29 11:53:02;;;;;;;;;;;;;;;16.24;50.65;100666.03;5020090;28;1107;-46
2024/03/29 11:55:28;;;;;;;;;;;;;;;16.16;50.65;100682.53;5037497;28;1059;-46
2024/03/29 11:57:54;;;;;;;;;;;;;;;16.03;50.96;100683.41;5036827;28;1130;-50
2024/03/29 12:00:19;;;;;;;;;;;;;;;16.88;49.31;100686.13;5037563;28;1150;-50
2024/03/29 12:02:45;;;;;;;;;;;;;;;17.67;47.25;100672.25;5037598;28;1107;-49
2024/03/29 12:05:10;;;;;;;;;;;;;;;16.86;48.94;100688.06;5037273;28;1154;-45
2024/03/29 12:07:36;;;;;;;;;;;;;;;16.56;49.67;100686.72;5037368;28;1075;-50
2024/03/29 12:10:02;;;;;;;;;;;;;;;16.39;50.17;100685.31;5037449;28;1907;-47
2024/03/29 12:12:29;;;;;;;;;;;;;;;16.26;50.48;100680.06;5019982;28;1061;-51
2024/03/29 12:14:54;;;;;;;;;;;;;;;16.21;50.76;100679.53;5036964;28;1186;-48
2024/03/29 12:17:20;;;;;;;;;;;;;;;17.09;49.05;100679.31;5019642;28;1148;-51
2024/03/29 12:19:48;;;;;;;;;;;;;;;17.49;47.47;100670.94;5037399;28;1020;-53
2024/03/29 12:22:13;;;;;;;;;;;;;;;16.85;49.27;100680.22;5037353;28;1031;-53
2024/03/29 12:24:39;;;;;;;;;;;;;;;16.54;50.03;100683.34;5037415;28;1075;-51
2024/03/29 12:27:04;;;;;;;;;;;;;;;16.37;50.39;100677.47;5036325;28;1083;-48
2024/03/29 12:29:30;;;;;;;;;;;;;;;16.23;50.73;100667.00;5037020;28;1154;-48
2024/03/29 12:31:56;;;;;;;;;;;;;;;16.13;50.85;100664.19;5037245;28;1918;-51
2024/03/29 12:34:22;;;;;;;;;;;;;;;16.27;50.83;100671.97;5037275;28;1144;-49
2024/03/29 12:36:48;;;;;;;;;;;;;;;17.66;47.64;100670.56;5036195;28;1071;-52
2024/03/29 12:39:13;;;;;;;;;;;;;;;17.25;48.23;100673.66;5036284;28;877;-50
2024/03/29 12:41:39;;;;;;;;;;;;;;;16.76;49.55;100677.28;5036988;28;1087;-49
2024/03/29 12:44:06;;;;;;;;;;;;;;;16.52;50.19;100671.97;5036703;28;1134;-49
2024/03/29 12:46:31;;;;;;;;;;;;;;;16.36;50.76;100669.63;5019262;28;1131;-50
2024/03/29 12:48:58;;;;;;;;;;;;;;;16.26;50.80;100670.31;5036671;28;1146;-49